sensor_id;sensor_type;location;lat;lon;timestamp;P1;durP1;ratioP1;P2;durP2;ratioP2
38940;SDS011;43236;47.208;7.518;2024-03-23T00:54:48;4.22;;;3.47;;
38940;SDS011;43236;47.208;7.518;2024-03-23T00:57:35;5.05;;;3.83;;
38940;SDS011;43236;47.208;7.518;2024-03-23T01:00:21;6.38;;;4.20;;
38940;SDS011;43236;47.208;7.518;2024-03-23T01:03:08;5.55;;;4.30;;
38940;SDS011;43236;47.208;7.518;2024-03-23T01:05:54;4.88;;;3.53;;
38940;SDS011;43236;47.208;7.518;2024-03-23T01:08:45;4.45;;;3.83;;
38940;SDS011;43236;47.208;7.518;2024-03-23T01:11:33;3.75;;;3.45;;
38940;SDS011;43236;47.208;7.518;2024-03-23T01:14:20;6.97;;;4.47;;
38940;SDS011;43236;47.208;7.518;2024-03-23T01:17:06;5.65;;;3.75;;
38940;SDS011;43236;47.208;7.518;2024-03-23T01:19:53;5.10;;;4.25;;
38940;SDS011;43236;47.208;7.518;2024-03-23T01:22:39;5.65;;;4.05;;
38940;SDS011;43236;47.208;7.518;2024-03-23T01:25:26;6.32;;;4.38;;
38940;SDS011;43236;47.208;7.518;2024-03-23T01:28:13;4.60;;;3.75;;
38940;SDS011;43236;47.208;7.518;2024-03-23T01:31:00;5.85;;;3.83;;
38940;SDS011;43236;47.208;7.518;2024-03-23T01:33:46;4.97;;;4.50;;
38940;SDS011;43236;47.208;7.518;2024-03-23T01:36:33;6.03;;;3.72;;
38940;SDS011;43236;47.208;7.518;2024-03-23T01:39:19;5.93;;;3.65;;
38940;SDS011;43236;47.208;7.518;2024-03-23T01:42:06;8.48;;;4.00;;
38940;SDS011;43236;47.208;7.518;2024-03-23T01:44:54;5.00;;;3.83;;
38940;SDS011;43236;47.208;7.518;2024-03-23T01:47:41;4.20;;;3.17;;
38940;SDS011;43236;47.208;7.518;2024-03-23T01:50:27;4.40;;;3.80;;
38940;SDS011;43236;47.208;7.518;2024-03-23T01:53:16;3.95;;;3.30;;
38940;SDS011;43236;47.208;7.518;2024-03-23T01:56:03;5.43;;;4.25;;
38940;SDS011;43236;47.208;7.518;2024-03-23T01:58:50;4.72;;;4.22;;
38940;SDS011;43236;47.208;7.518;2024-03-23T02:01:37;10.18;;;4.50;;
38940;SDS011;43236;47.208;7.518;2024-03-23T02:04:24;13.82;;;4.25;;
38940;SDS011;43236;47.208;7.518;2024-03-23T02:07:11;8.88;;;4.90;;
38940;SDS011;43236;47.208;7.518;2024-03-23T02:09:58;4.45;;;4.00;;
38940;SDS011;43236;47.208;7.518;2024-03-23T02:12:44;5.68;;;3.70;;
38940;SDS011;43236;47.208;7.518;2024-03-23T02:15:32;9.02;;;3.92;;
38940;SDS011;43236;47.208;7.518;2024-03-23T02:18:20;6.15;;;3.58;;
38940;SDS011;43236;47.208;7.518;2024-03-23T02:21:07;5.80;;;3.97;;
38940;SDS011;43236;47.208;7.518;2024-03-23T02:23:54;4.75;;;3.88;;
38940;SDS011;43236;47.208;7.518;2024-03-23T02:26:41;4.28;;;3.53;;
38940;SDS011;43236;47.208;7.518;2024-03-23T02:29:28;6.38;;;4.90;;
38940;SDS011;43236;47.208;7.518;2024-03-23T02:32:15;4.38;;;3.85;;
38940;SDS011;43236;47.208;7.518;2024-03-23T02:35:01;3.92;;;3.17;;
38940;SDS011;43236;47.208;7.518;2024-03-23T02:37:48;7.00;;;4.00;;
38940;SDS011;43236;47.208;7.518;2024-03-23T02:40:35;9.68;;;3.95;;
38940;SDS011;43236;47.208;7.518;2024-03-23T02:43:23;4.55;;;3.60;;
38940;SDS011;43236;47.208;7.518;2024-03-23T02:46:09;4.60;;;3.03;;
38940;SDS011;43236;47.208;7.518;2024-03-23T02:48:56;5.13;;;4.07;;
38940;SDS011;43236;47.208;7.518;2024-03-23T02:51:42;4.80;;;4.30;;
38940;SDS011;43236;47.208;7.518;2024-03-23T02:54:30;4.43;;;3.97;;
38940;SDS011;43236;47.208;7.518;2024-03-23T02:57:18;8.48;;;3.35;;
38940;SDS011;43236;47.208;7.518;2024-03-23T03:00:05;7.70;;;4.18;;
38940;SDS011;43236;47.208;7.518;2024-03-23T03:02:52;6.25;;;5.10;;
38940;SDS011;43236;47.208;7.518;2024-03-23T03:05:39;5.15;;;4.60;;
38940;SDS011;43236;47.208;7.518;2024-03-23T03:08:25;5.50;;;4.75;;
38940;SDS011;43236;47.208;7.518;2024-03-23T03:11:14;7.07;;;4.72;;
38940;SDS011;43236;47.208;7.518;2024-03-23T03:14:02;4.53;;;4.10;;
38940;SDS011;43236;47.208;7.518;2024-03-23T03:16:49;6.95;;;4.47;;
38940;SDS011;43236;47.208;7.518;2024-03-23T03:19:36;7.78;;;3.85;;
38940;SDS011;43236;47.208;7.518;2024-03-23T03:22:22;6.70;;;4.07;;
38940;SDS011;43236;47.208;7.518;2024-03-23T03:25:09;4.68;;;3.63;;
38940;SDS011;43236;47.208;7.518;2024-03-23T03:27:55;4.80;;;3.83;;
38940;SDS011;43236;47.208;7.518;2024-03-23T03:30:43;4.80;;;3.63;;
38940;SDS011;43236;47.208;7.518;2024-03-23T03:33:31;4.25;;;3.78;;
38940;SDS011;43236;47.208;7.518;2024-03-23T03:36:18;5.53;;;3.65;;
38940;SDS011;43236;47.208;7.518;2024-03-23T03:39:04;4.90;;;4.00;;
38940;SDS011;43236;47.208;7.518;2024-03-23T03:41:52;5.50;;;3.95;;
38940;SDS011;43236;47.208;7.518;2024-03-23T03:44:38;4.57;;;3.78;;
38940;SDS011;43236;47.208;7.518;2024-03-23T03:47:27;7.95;;;4.20;;
38940;SDS011;43236;47.208;7.518;2024-03-23T03:50:13;6.88;;;4.68;;
38940;SDS011;43236;47.208;7.518;2024-03-23T03:53:00;5.20;;;3.85;;
38940;SDS011;43236;47.208;7.518;2024-03-23T03:55:46;4.38;;;3.45;;
38940;SDS011;43236;47.208;7.518;2024-03-23T03:58:33;5.63;;;4.50;;
38940;SDS011;43236;47.208;7.518;2024-03-23T04:01:19;6.55;;;4.38;;
38940;SDS011;43236;47.208;7.518;2024-03-23T04:04:08;8.63;;;3.80;;
38940;SDS011;43236;47.208;7.518;2024-03-23T04:06:57;4.60;;;4.20;;
38940;SDS011;43236;47.208;7.518;2024-03-23T04:09:45;9.30;;;3.17;;
38940;SDS011;43236;47.208;7.518;2024-03-23T04:12:31;5.72;;;4.03;;
38940;SDS011;43236;47.208;7.518;2024-03-23T04:15:18;4.78;;;3.53;;
38940;SDS011;43236;47.208;7.518;2024-03-23T04:18:04;6.00;;;3.72;;
38940;SDS011;43236;47.208;7.518;2024-03-23T04:20:53;5.57;;;4.03;;
38940;SDS011;43236;47.208;7.518;2024-03-23T04:23:39;4.07;;;3.60;;
38940;SDS011;43236;47.208;7.518;2024-03-23T04:26:26;4.07;;;3.38;;
38940;SDS011;43236;47.208;7.518;2024-03-23T04:29:12;4.65;;;4.18;;
38940;SDS011;43236;47.208;7.518;2024-03-23T04:31:59;10.20;;;5.57;;
38940;SDS011;43236;47.208;7.518;2024-03-23T04:34:47;4.40;;;3.50;;
38940;SDS011;43236;47.208;7.518;2024-03-23T04:37:36;4.00;;;3.33;;
38940;SDS011;43236;47.208;7.518;2024-03-23T04:40:23;5.25;;;3.88;;
38940;SDS011;43236;47.208;7.518;2024-03-23T04:43:10;5.93;;;3.83;;
38940;SDS011;43236;47.208;7.518;2024-03-23T04:45:57;4.85;;;4.35;;
38940;SDS011;43236;47.208;7.518;2024-03-23T04:48:44;4.75;;;3.80;;
38940;SDS011;43236;47.208;7.518;2024-03-23T04:51:35;4.93;;;3.92;;
38940;SDS011;43236;47.208;7.518;2024-03-23T04:54:24;9.70;;;4.45;;
38940;SDS011;43236;47.208;7.518;2024-03-23T04:57:11;5.50;;;3.90;;
38940;SDS011;43236;47.208;7.518;2024-03-23T04:59:58;4.43;;;4.03;;
38940;SDS011;43236;47.208;7.518;2024-03-23T05:02:44;4.13;;;3.53;;
38940;SDS011;43236;47.208;7.518;2024-03-23T05:05:31;4.93;;;3.03;;
38940;SDS011;43236;47.208;7.518;2024-03-23T05:08:18;4.43;;;3.13;;
38940;SDS011;43236;47.208;7.518;2024-03-23T05:11:06;4.00;;;3.15;;
38940;SDS011;43236;47.208;7.518;2024-03-23T05:13:52;5.03;;;3.13;;
38940;SDS011;43236;47.208;7.518;2024-03-23T05:16:39;4.43;;;2.53;;
38940;SDS011;43236;47.208;7.518;2024-03-23T05:19:25;3.67;;;3.33;;
38940;SDS011;43236;47.208;7.518;2024-03-23T05:22:12;3.75;;;2.75;;
38940;SDS011;43236;47.208;7.518;2024-03-23T05:24:58;3.03;;;2.47;;
38940;SDS011;43236;47.208;7.518;2024-03-23T05:27:47;4.70;;;3.08;;
38940;SDS011;43236;47.208;7.518;2024-03-23T05:30:33;5.50;;;3.10;;
38940;SDS011;43236;47.208;7.518;2024-03-23T05:33:20;4.43;;;3.42;;
38940;SDS011;43236;47.208;7.518;2024-03-23T05:36:08;5.20;;;3.40;;
38940;SDS011;43236;47.208;7.518;2024-03-23T05:38:56;5.53;;;2.47;;
38940;SDS011;43236;47.208;7.518;2024-03-23T05:41:43;4.05;;;3.22;;
38940;SDS011;43236;47.208;7.518;2024-03-23T05:44:31;3.67;;;2.95;;
38940;SDS011;43236;47.208;7.518;2024-03-23T05:47:18;3.50;;;3.08;;
38940;SDS011;43236;47.208;7.518;2024-03-23T05:50:04;5.07;;;3.08;;
38940;SDS011;43236;47.208;7.518;2024-03-23T05:52:52;2.70;;;2.42;;
38940;SDS011;43236;47.208;7.518;2024-03-23T05:55:38;7.05;;;3.20;;
38940;SDS011;43236;47.208;7.518;2024-03-23T05:58:25;3.72;;;2.72;;
38940;SDS011;43236;47.208;7.518;2024-03-23T06:01:13;2.85;;;2.38;;
38940;SDS011;43236;47.208;7.518;2024-03-23T06:04:00;4.20;;;3.00;;
38940;SDS011;43236;47.208;7.518;2024-03-23T06:06:48;2.67;;;1.85;;
38940;SDS011;43236;47.208;7.518;2024-03-23T06:09:34;3.90;;;2.05;;
38940;SDS011;43236;47.208;7.518;2024-03-23T06:12:21;3.30;;;1.83;;
38940;SDS011;43236;47.208;7.518;2024-03-23T06:15:07;2.72;;;2.25;;
38940;SDS011;43236;47.208;7.518;2024-03-23T06:17:57;2.08;;;1.80;;
38940;SDS011;43236;47.208;7.518;2024-03-23T06:20:43;2.55;;;1.67;;
38940;SDS011;43236;47.208;7.518;2024-03-23T06:23:30;2.42;;;1.80;;
38940;SDS011;43236;47.208;7.518;2024-03-23T06:26:16;3.08;;;2.10;;
38940;SDS011;43236;47.208;7.518;2024-03-23T06:29:04;1.90;;;1.40;;
38940;SDS011;43236;47.208;7.518;2024-03-23T06:31:54;1.15;;;0.98;;
38940;SDS011;43236;47.208;7.518;2024-03-23T06:34:42;0.93;;;0.88;;
38940;SDS011;43236;47.208;7.518;2024-03-23T06:37:30;1.38;;;0.88;;
38940;SDS011;43236;47.208;7.518;2024-03-23T06:40:16;1.67;;;1.58;;
38940;SDS011;43236;47.208;7.518;2024-03-23T06:43:03;1.10;;;1.02;;
38940;SDS011;43236;47.208;7.518;2024-03-23T06:45:52;0.63;;;0.63;;
38940;SDS011;43236;47.208;7.518;2024-03-23T06:48:39;1.02;;;0.63;;
38940;SDS011;43236;47.208;7.518;2024-03-23T06:51:27;0.70;;;0.70;;
38940;SDS011;43236;47.208;7.518;2024-03-23T06:54:14;1.35;;;1.15;;
38940;SDS011;43236;47.208;7.518;2024-03-23T06:57:01;0.68;;;0.68;;
38940;SDS011;43236;47.208;7.518;2024-03-23T06:59:48;0.70;;;0.70;;
38940;SDS011;43236;47.208;7.518;2024-03-23T07:02:34;3.63;;;1.50;;
38940;SDS011;43236;47.208;7.518;2024-03-23T07:05:21;0.82;;;0.63;;
38940;SDS011;43236;47.208;7.518;2024-03-23T07:08:09;2.20;;;1.25;;
38940;SDS011;43236;47.208;7.518;2024-03-23T07:10:56;0.60;;;0.60;;
38940;SDS011;43236;47.208;7.518;2024-03-23T07:13:42;0.88;;;0.77;;
38940;SDS011;43236;47.208;7.518;2024-03-23T07:16:29;0.75;;;0.70;;
38940;SDS011;43236;47.208;7.518;2024-03-23T07:19:17;2.10;;;1.13;;
38940;SDS011;43236;47.208;7.518;2024-03-23T07:22:04;0.82;;;0.77;;
38940;SDS011;43236;47.208;7.518;2024-03-23T07:24:51;0.40;;;0.40;;
38940;SDS011;43236;47.208;7.518;2024-03-23T07:27:39;0.90;;;0.43;;
38940;SDS011;43236;47.208;7.518;2024-03-23T07:30:25;0.40;;;0.40;;
38940;SDS011;43236;47.208;7.518;2024-03-23T07:33:13;0.40;;;0.40;;
38940;SDS011;43236;47.208;7.518;2024-03-23T07:35:59;0.35;;;0.32;;
38940;SDS011;43236;47.208;7.518;2024-03-23T07:38:47;0.30;;;0.30;;
38940;SDS011;43236;47.208;7.518;2024-03-23T07:41:35;0.20;;;0.20;;
38940;SDS011;43236;47.208;7.518;2024-03-23T07:44:21;0.22;;;0.22;;
38940;SDS011;43236;47.208;7.518;2024-03-23T07:47:08;0.98;;;0.52;;
38940;SDS011;43236;47.208;7.518;2024-03-23T07:49:54;0.32;;;0.32;;
38940;SDS011;43236;47.208;7.518;2024-03-23T07:52:41;0.30;;;0.30;;
38940;SDS011;43236;47.208;7.518;2024-03-23T07:55:28;0.20;;;0.20;;
38940;SDS011;43236;47.208;7.518;2024-03-23T07:58:16;0.30;;;0.30;;
38940;SDS011;43236;47.208;7.518;2024-03-23T08:01:05;0.30;;;0.30;;
38940;SDS011;43236;47.208;7.518;2024-03-23T08:03:55;0.27;;;0.27;;
38940;SDS011;43236;47.208;7.518;2024-03-23T08:06:42;1.25;;;0.30;;
38940;SDS011;43236;47.208;7.518;2024-03-23T08:09:28;0.20;;;0.20;;
38940;SDS011;43236;47.208;7.518;2024-03-23T08:12:15;0.40;;;0.40;;
38940;SDS011;43236;47.208;7.518;2024-03-23T08:15:03;0.38;;;0.38;;
38940;SDS011;43236;47.208;7.518;2024-03-23T08:17:50;0.55;;;0.47;;
38940;SDS011;43236;47.208;7.518;2024-03-23T08:20:37;0.30;;;0.30;;
38940;SDS011;43236;47.208;7.518;2024-03-23T08:23:24;0.40;;;0.40;;
38940;SDS011;43236;47.208;7.518;2024-03-23T08:26:11;0.50;;;0.50;;
38940;SDS011;43236;47.208;7.518;2024-03-23T08:28:59;0.43;;;0.43;;
38940;SDS011;43236;47.208;7.518;2024-03-23T08:31:46;0.55;;;0.43;;
38940;SDS011;43236;47.208;7.518;2024-03-23T08:34:33;0.20;;;0.20;;
38940;SDS011;43236;47.208;7.518;2024-03-23T08:37:19;0.47;;;0.47;;
38940;SDS011;43236;47.208;7.518;2024-03-23T08:40:06;1.48;;;0.60;;
38940;SDS011;43236;47.208;7.518;2024-03-23T08:42:53;1.33;;;0.77;;
38940;SDS011;43236;47.208;7.518;2024-03-23T08:45:40;1.63;;;0.80;;
38940;SDS011;43236;47.208;7.518;2024-03-23T08:48:28;0.60;;;0.60;;
38940;SDS011;43236;47.208;7.518;2024-03-23T08:51:15;0.38;;;0.38;;
38940;SDS011;43236;47.208;7.518;2024-03-23T08:54:02;0.98;;;0.68;;
38940;SDS011;43236;47.208;7.518;2024-03-23T08:56:49;5.85;;;0.85;;
38940;SDS011;43236;47.208;7.518;2024-03-23T08:59:37;1.45;;;1.35;;
38940;SDS011;43236;47.208;7.518;2024-03-23T09:02:24;0.80;;;0.80;;
38940;SDS011;43236;47.208;7.518;2024-03-23T09:05:11;2.55;;;1.23;;
38940;SDS011;43236;47.208;7.518;2024-03-23T09:07:58;2.90;;;1.35;;
38940;SDS011;43236;47.208;7.518;2024-03-23T09:10:45;2.88;;;1.05;;
38940;SDS011;43236;47.208;7.518;2024-03-23T09:13:32;1.02;;;0.98;;
38940;SDS011;43236;47.208;7.518;2024-03-23T09:16:18;4.25;;;0.80;;
38940;SDS011;43236;47.208;7.518;2024-03-23T09:19:05;2.53;;;0.90;;
38940;SDS011;43236;47.208;7.518;2024-03-23T09:21:53;1.85;;;1.15;;
38940;SDS011;43236;47.208;7.518;2024-03-23T09:24:40;0.93;;;0.90;;
38940;SDS011;43236;47.208;7.518;2024-03-23T09:27:26;2.35;;;1.00;;
38940;SDS011;43236;47.208;7.518;2024-03-23T09:30:13;1.48;;;1.30;;
38940;SDS011;43236;47.208;7.518;2024-03-23T09:32:59;2.80;;;1.25;;
38940;SDS011;43236;47.208;7.518;2024-03-23T09:35:47;0.82;;;0.80;;
38940;SDS011;43236;47.208;7.518;2024-03-23T09:38:34;3.17;;;1.48;;
38940;SDS011;43236;47.208;7.518;2024-03-23T09:41:22;3.60;;;1.42;;
38940;SDS011;43236;47.208;7.518;2024-03-23T09:44:09;6.13;;;1.67;;
38940;SDS011;43236;47.208;7.518;2024-03-23T09:46:55;0.77;;;0.73;;
38940;SDS011;43236;47.208;7.518;2024-03-23T09:49:42;1.42;;;1.33;;
38940;SDS011;43236;47.208;7.518;2024-03-23T09:52:29;1.63;;;1.48;;
38940;SDS011;43236;47.208;7.518;2024-03-23T09:55:18;2.88;;;1.17;;
38940;SDS011;43236;47.208;7.518;2024-03-23T09:58:04;1.88;;;1.30;;
38940;SDS011;43236;47.208;7.518;2024-03-23T10:00:51;3.33;;;1.00;;
38940;SDS011;43236;47.208;7.518;2024-03-23T10:03:42;6.55;;;1.40;;
38940;SDS011;43236;47.208;7.518;2024-03-23T10:06:30;1.05;;;0.95;;
38940;SDS011;43236;47.208;7.518;2024-03-23T10:09:16;1.65;;;1.20;;
38940;SDS011;43236;47.208;7.518;2024-03-23T10:12:08;4.45;;;1.25;;
38940;SDS011;43236;47.208;7.518;2024-03-23T10:14:55;1.40;;;1.15;;
38940;SDS011;43236;47.208;7.518;2024-03-23T10:17:42;1.25;;;0.75;;
38940;SDS011;43236;47.208;7.518;2024-03-23T10:20:30;2.10;;;0.80;;
38940;SDS011;43236;47.208;7.518;2024-03-23T10:23:17;1.08;;;0.98;;
38940;SDS011;43236;47.208;7.518;2024-03-23T10:26:13;0.90;;;0.77;;
38940;SDS011;43236;47.208;7.518;2024-03-23T10:29:03;4.07;;;1.50;;
38940;SDS011;43236;47.208;7.518;2024-03-23T10:31:53;1.48;;;0.93;;
38940;SDS011;43236;47.208;7.518;2024-03-23T10:34:41;2.97;;;1.25;;
38940;SDS011;43236;47.208;7.518;2024-03-23T10:37:27;5.75;;;1.38;;
38940;SDS011;43236;47.208;7.518;2024-03-23T10:40:15;6.93;;;1.02;;
38940;SDS011;43236;47.208;7.518;2024-03-23T10:43:01;1.58;;;1.25;;
38940;SDS011;43236;47.208;7.518;2024-03-23T10:45:51;1.45;;;0.98;;
38940;SDS011;43236;47.208;7.518;2024-03-23T10:48:37;0.77;;;0.77;;
38940;SDS011;43236;47.208;7.518;2024-03-23T10:51:24;1.10;;;0.73;;
38940;SDS011;43236;47.208;7.518;2024-03-23T10:54:11;2.92;;;1.65;;
38940;SDS011;43236;47.208;7.518;2024-03-23T10:56:59;3.45;;;0.95;;
38940;SDS011;43236;47.208;7.518;2024-03-23T10:59:49;1.38;;;0.85;;
38940;SDS011;43236;47.208;7.518;2024-03-23T11:02:38;3.63;;;1.65;;
38940;SDS011;43236;47.208;7.518;2024-03-23T11:05:30;1.20;;;0.88;;
38940;SDS011;43236;47.208;7.518;2024-03-23T11:08:29;4.18;;;1.02;;
38940;SDS011;43236;47.208;7.518;2024-03-23T11:11:17;1.85;;;1.05;;
38940;SDS011;43236;47.208;7.518;2024-03-23T11:14:05;0.88;;;0.70;;
38940;SDS011;43236;47.208;7.518;2024-03-23T11:17:08;1.98;;;1.15;;
38940;SDS011;43236;47.208;7.518;2024-03-23T11:19:58;1.90;;;0.85;;
38940;SDS011;43236;47.208;7.518;2024-03-23T11:22:45;1.25;;;0.82;;
38940;SDS011;43236;47.208;7.518;2024-03-23T11:25:34;0.63;;;0.63;;
38940;SDS011;43236;47.208;7.518;2024-03-23T11:28:20;4.20;;;1.30;;
38940;SDS011;43236;47.208;7.518;2024-03-23T11:31:09;2.78;;;1.60;;
38940;SDS011;43236;47.208;7.518;2024-03-23T11:34:02;1.25;;;1.10;;
38940;SDS011;43236;47.208;7.518;2024-03-23T11:36:53;1.55;;;1.38;;
38940;SDS011;43236;47.208;7.518;2024-03-23T11:39:49;1.63;;;1.00;;
38940;SDS011;43236;47.208;7.518;2024-03-23T11:42:36;1.05;;;0.95;;
38940;SDS011;43236;47.208;7.518;2024-03-23T11:45:22;8.00;;;2.40;;
38940;SDS011;43236;47.208;7.518;2024-03-23T11:48:09;0.80;;;0.75;;
38940;SDS011;43236;47.208;7.518;2024-03-23T11:50:57;4.78;;;1.67;;
38940;SDS011;43236;47.208;7.518;2024-03-23T11:53:45;2.58;;;1.23;;
38940;SDS011;43236;47.208;7.518;2024-03-23T11:56:32;2.65;;;1.77;;
38940;SDS011;43236;47.208;7.518;2024-03-23T11:59:29;1.27;;;1.00;;
38940;SDS011;43236;47.208;7.518;2024-03-23T12:02:17;2.15;;;1.00;;
38940;SDS011;43236;47.208;7.518;2024-03-23T12:05:13;1.17;;;1.08;;
38940;SDS011;43236;47.208;7.518;2024-03-23T12:08:16;3.38;;;1.27;;
38940;SDS011;43236;47.208;7.518;2024-03-23T12:11:09;3.47;;;1.15;;
38940;SDS011;43236;47.208;7.518;2024-03-23T12:13:57;1.75;;;1.42;;
38940;SDS011;43236;47.208;7.518;2024-03-23T12:16:46;1.20;;;1.05;;
38940;SDS011;43236;47.208;7.518;2024-03-23T12:19:32;1.05;;;0.80;;
38940;SDS011;43236;47.208;7.518;2024-03-23T12:22:20;3.05;;;1.20;;
38940;SDS011;43236;47.208;7.518;2024-03-23T12:25:07;2.33;;;1.10;;
38940;SDS011;43236;47.208;7.518;2024-03-23T12:27:54;3.47;;;1.15;;
38940;SDS011;43236;47.208;7.518;2024-03-23T12:30:45;2.80;;;1.58;;
38940;SDS011;43236;47.208;7.518;2024-03-23T12:33:32;0.80;;;0.73;;
38940;SDS011;43236;47.208;7.518;2024-03-23T12:36:18;1.25;;;0.73;;
38940;SDS011;43236;47.208;7.518;2024-03-23T12:39:05;0.88;;;0.85;;
38940;SDS011;43236;47.208;7.518;2024-03-23T12:41:52;2.47;;;1.15;;
38940;SDS011;43236;47.208;7.518;2024-03-23T12:44:40;0.70;;;0.70;;
38940;SDS011;43236;47.208;7.518;2024-03-23T12:47:26;1.35;;;0.90;;
38940;SDS011;43236;47.208;7.518;2024-03-23T12:50:14;2.33;;;1.10;;
38940;SDS011;43236;47.208;7.518;2024-03-23T12:53:00;2.40;;;0.57;;
38940;SDS011;43236;47.208;7.518;2024-03-23T12:55:47;0.47;;;0.47;;
38940;SDS011;43236;47.208;7.518;2024-03-23T12:58:33;1.58;;;0.80;;
38940;SDS011;43236;47.208;7.518;2024-03-23T13:01:21;1.30;;;0.88;;
38940;SDS011;43236;47.208;7.518;2024-03-23T13:04:08;2.33;;;1.00;;
38940;SDS011;43236;47.208;7.518;2024-03-23T13:06:55;0.60;;;0.60;;
38940;SDS011;43236;47.208;7.518;2024-03-23T13:09:41;2.13;;;0.63;;
38940;SDS011;43236;47.208;7.518;2024-03-23T13:12:28;3.17;;;0.85;;
38940;SDS011;43236;47.208;7.518;2024-03-23T13:15:14;3.63;;;1.10;;
38940;SDS011;43236;47.208;7.518;2024-03-23T13:18:04;1.48;;;1.33;;
38940;SDS011;43236;47.208;7.518;2024-03-23T13:20:51;1.92;;;0.90;;
38940;SDS011;43236;47.208;7.518;2024-03-23T13:23:38;1.13;;;0.85;;
38940;SDS011;43236;47.208;7.518;2024-03-23T13:26:27;1.63;;;0.90;;
38940;SDS011;43236;47.208;7.518;2024-03-23T13:29:13;4.20;;;3.63;;
38940;SDS011;43236;47.208;7.518;2024-03-23T13:32:00;0.98;;;0.88;;
38940;SDS011;43236;47.208;7.518;2024-03-23T13:34:48;2.45;;;1.25;;
38940;SDS011;43236;47.208;7.518;2024-03-23T13:37:35;1.05;;;0.70;;
38940;SDS011;43236;47.208;7.518;2024-03-23T13:40:21;1.10;;;0.98;;
38940;SDS011;43236;47.208;7.518;2024-03-23T13:43:08;0.68;;;0.63;;
38940;SDS011;43236;47.208;7.518;2024-03-23T13:45:55;1.35;;;1.08;;
38940;SDS011;43236;47.208;7.518;2024-03-23T13:48:43;2.67;;;1.70;;
38940;SDS011;43236;47.208;7.518;2024-03-23T13:51:30;1.23;;;0.93;;
38940;SDS011;43236;47.208;7.518;2024-03-23T13:54:18;1.38;;;1.13;;
38940;SDS011;43236;47.208;7.518;2024-03-23T13:57:04;2.45;;;1.05;;
38940;SDS011;43236;47.208;7.518;2024-03-23T13:59:51;1.33;;;1.20;;
38940;SDS011;43236;47.208;7.518;2024-03-23T14:02:38;1.75;;;0.98;;
38940;SDS011;43236;47.208;7.518;2024-03-23T14:05:24;2.58;;;0.90;;
38940;SDS011;43236;47.208;7.518;2024-03-23T14:08:13;2.88;;;1.10;;
38940;SDS011;43236;47.208;7.518;2024-03-23T14:10:59;1.67;;;1.13;;
38940;SDS011;43236;47.208;7.518;2024-03-23T14:13:46;1.25;;;1.00;;
38940;SDS011;43236;47.208;7.518;2024-03-23T14:16:33;1.20;;;0.75;;
38940;SDS011;43236;47.208;7.518;2024-03-23T14:19:19;2.92;;;1.05;;
38940;SDS011;43236;47.208;7.518;2024-03-23T14:22:06;1.02;;;0.95;;
38940;SDS011;43236;47.208;7.518;2024-03-23T14:24:54;2.72;;;0.93;;
38940;SDS011;43236;47.208;7.518;2024-03-23T14:27:40;2.13;;;0.90;;
38940;SDS011;43236;47.208;7.518;2024-03-23T14:30:27;1.95;;;0.88;;
38940;SDS011;43236;47.208;7.518;2024-03-23T14:33:13;0.75;;;0.75;;
38940;SDS011;43236;47.208;7.518;2024-03-23T14:36:00;2.00;;;0.75;;
38940;SDS011;43236;47.208;7.518;2024-03-23T14:38:47;4.45;;;1.50;;
38940;SDS011;43236;47.208;7.518;2024-03-23T14:41:35;1.02;;;1.02;;
38940;SDS011;43236;47.208;7.518;2024-03-23T14:44:21;1.27;;;0.88;;
38940;SDS011;43236;47.208;7.518;2024-03-23T14:47:08;1.55;;;0.90;;
38940;SDS011;43236;47.208;7.518;2024-03-23T14:49:54;0.75;;;0.63;;
38940;SDS011;43236;47.208;7.518;2024-03-23T14:52:44;2.03;;;0.32;;
38940;SDS011;43236;47.208;7.518;2024-03-23T14:55:31;1.88;;;0.55;;
38940;SDS011;43236;47.208;7.518;2024-03-23T14:58:19;1.30;;;0.73;;
38940;SDS011;43236;47.208;7.518;2024-03-23T15:01:06;4.07;;;1.30;;
38940;SDS011;43236;47.208;7.518;2024-03-23T15:03:54;2.85;;;1.02;;
38940;SDS011;43236;47.208;7.518;2024-03-23T15:06:41;0.90;;;0.90;;
38940;SDS011;43236;47.208;7.518;2024-03-23T15:09:27;1.20;;;0.90;;
38940;SDS011;43236;47.208;7.518;2024-03-23T15:12:14;4.13;;;0.82;;
38940;SDS011;43236;47.208;7.518;2024-03-23T15:15:02;0.60;;;0.60;;
38940;SDS011;43236;47.208;7.518;2024-03-23T15:17:49;5.10;;;0.88;;
38940;SDS011;43236;47.208;7.518;2024-03-23T15:20:35;2.70;;;0.90;;
38940;SDS011;43236;47.208;7.518;2024-03-23T15:23:22;0.73;;;0.73;;
38940;SDS011;43236;47.208;7.518;2024-03-23T15:26:09;1.30;;;0.80;;
38940;SDS011;43236;47.208;7.518;2024-03-23T15:28:56;1.35;;;0.52;;
38940;SDS011;43236;47.208;7.518;2024-03-23T15:32:03;0.82;;;0.50;;
38940;SDS011;43236;47.208;7.518;2024-03-23T15:34:50;1.30;;;1.20;;
38940;SDS011;43236;47.208;7.518;2024-03-23T15:37:37;2.55;;;0.93;;
38940;SDS011;43236;47.208;7.518;2024-03-23T15:40:24;1.95;;;0.88;;
38940;SDS011;43236;47.208;7.518;2024-03-23T15:43:10;2.95;;;0.90;;
38940;SDS011;43236;47.208;7.518;2024-03-23T15:45:58;1.17;;;1.10;;
38940;SDS011;43236;47.208;7.518;2024-03-23T15:48:46;3.42;;;1.33;;
38940;SDS011;43236;47.208;7.518;2024-03-23T15:51:34;1.73;;;1.30;;
38940;SDS011;43236;47.208;7.518;2024-03-23T15:54:22;0.60;;;0.60;;
38940;SDS011;43236;47.208;7.518;2024-03-23T15:57:09;1.23;;;0.98;;
38940;SDS011;43236;47.208;7.518;2024-03-23T15:59:55;2.05;;;1.35;;
38940;SDS011;43236;47.208;7.518;2024-03-23T16:02:42;0.98;;;0.98;;
38940;SDS011;43236;47.208;7.518;2024-03-23T16:05:29;0.77;;;0.77;;
38940;SDS011;43236;47.208;7.518;2024-03-23T16:08:16;1.35;;;1.25;;
38940;SDS011;43236;47.208;7.518;2024-03-23T16:11:03;1.20;;;1.00;;
38940;SDS011;43236;47.208;7.518;2024-03-23T16:13:51;1.27;;;0.90;;
38940;SDS011;43236;47.208;7.518;2024-03-23T16:16:37;1.33;;;1.15;;
38940;SDS011;43236;47.208;7.518;2024-03-23T16:19:24;4.47;;;1.52;;
38940;SDS011;43236;47.208;7.518;2024-03-23T16:22:12;0.93;;;0.80;;
38940;SDS011;43236;47.208;7.518;2024-03-23T16:24:58;1.85;;;1.27;;
38940;SDS011;43236;47.208;7.518;2024-03-23T16:27:45;1.13;;;0.90;;
38940;SDS011;43236;47.208;7.518;2024-03-23T16:30:31;1.92;;;1.08;;
38940;SDS011;43236;47.208;7.518;2024-03-23T16:33:19;3.00;;;0.75;;
38940;SDS011;43236;47.208;7.518;2024-03-23T16:36:05;1.00;;;0.70;;
38940;SDS011;43236;47.208;7.518;2024-03-23T16:38:55;1.15;;;0.98;;
38940;SDS011;43236;47.208;7.518;2024-03-23T16:41:41;1.52;;;0.93;;
38940;SDS011;43236;47.208;7.518;2024-03-23T16:44:29;1.58;;;0.95;;
38940;SDS011;43236;47.208;7.518;2024-03-23T16:47:16;1.20;;;1.10;;
38940;SDS011;43236;47.208;7.518;2024-03-23T16:50:02;1.40;;;0.95;;
38940;SDS011;43236;47.208;7.518;2024-03-23T16:52:49;0.60;;;0.60;;
38940;SDS011;43236;47.208;7.518;2024-03-23T16:55:37;1.10;;;1.00;;
38940;SDS011;43236;47.208;7.518;2024-03-23T16:58:24;1.58;;;0.80;;
38940;SDS011;43236;47.208;7.518;2024-03-23T17:01:10;0.77;;;0.77;;
38940;SDS011;43236;47.208;7.518;2024-03-23T17:04:03;3.25;;;1.13;;
38940;SDS011;43236;47.208;7.518;2024-03-23T17:06:49;2.40;;;0.93;;
38940;SDS011;43236;47.208;7.518;2024-03-23T17:09:45;2.22;;;0.90;;
38940;SDS011;43236;47.208;7.518;2024-03-23T17:12:34;4.35;;;1.50;;
38940;SDS011;43236;47.208;7.518;2024-03-23T17:15:21;1.17;;;1.00;;
38940;SDS011;43236;47.208;7.518;2024-03-23T17:18:07;1.15;;;0.75;;
38940;SDS011;43236;47.208;7.518;2024-03-23T17:20:54;0.70;;;0.70;;
38940;SDS011;43236;47.208;7.518;2024-03-23T17:23:40;0.70;;;0.70;;
38940;SDS011;43236;47.208;7.518;2024-03-23T17:26:27;0.57;;;0.57;;
38940;SDS011;43236;47.208;7.518;2024-03-23T17:29:15;0.60;;;0.60;;
38940;SDS011;43236;47.208;7.518;2024-03-23T17:32:02;0.82;;;0.82;;
38940;SDS011;43236;47.208;7.518;2024-03-23T17:34:48;2.17;;;0.88;;
38940;SDS011;43236;47.208;7.518;2024-03-23T17:37:35;0.70;;;0.70;;
38940;SDS011;43236;47.208;7.518;2024-03-23T17:40:22;0.30;;;0.30;;
38940;SDS011;43236;47.208;7.518;2024-03-23T17:43:09;1.10;;;0.70;;